Time;durP1;ratioP1;P1;durP2;ratioP2;P2;SDS_P1;SDS_P2;PMS_P1;PMS_P2;Temp;Humidity;BMP_temperature;BMP_pressure;BME280_temperature;BME280_humidity;BME280_pressure;Samples;Min_cycle;Max_cycle;Signal;HPM_P1;HPM_P2
2022/11/06 00:02:27;;;;;;;;;4.00;4.00;;;;;8.84;74.78;99932.50;5135831;27;8896;-59
2022/11/06 00:06:46;;;;;;;;;6.50;5.50;;;;;8.84;74.90;99923.69;5135994;27;8817;-59
2022/11/06 00:07:41;;;;;;;;;7.25;6.50;;;;;8.82;74.65;99915.81;5135374;27;8926;-59
2022/11/06 00:10:09;;;;;;;;;9.25;6.75;;;;;8.81;74.80;99914.13;5135889;27;8821;-59
2022/11/06 00:12:38;;;;;;;;;6.50;6.50;;;;;8.81;75.14;99915.94;5136251;27;8825;-59
2022/11/06 00:15:06;;;;;;;;;7.00;7.00;;;;;8.80;75.08;99907.13;5136366;27;8822;-58
2022/11/06 00:17:34;;;;;;;;;7.80;6.60;;;;;8.82;74.92;99897.22;5136532;27;8813;-58
2022/11/06 00:20:01;;;;;;;;;7.00;7.00;;;;;8.84;74.97;99899.78;5136086;27;8833;-58
2022/11/06 00:22:29;;;;;;;;;10.00;8.50;;;;;8.84;74.95;99890.03;5135092;27;8849;-59
2022/11/06 00:24:57;;;;;;;;;5.00;5.00;;;;;8.88;75.06;99883.50;5135218;27;8825;-59
2022/11/06 00:27:24;;;;;;;;;7.00;6.50;;;;;8.93;74.79;99889.34;5134709;27;8906;-59
2022/11/06 00:29:52;;;;;;;;;5.50;3.00;;;;;8.99;75.06;99880.94;5133523;27;9445;-59
2022/11/06 00:32:19;;;;;;;;;4.00;4.00;;;;;9.05;74.71;99890.25;5135103;27;9476;-59
2022/11/06 00:34:47;;;;;;;;;6.75;6.75;;;;;9.12;74.59;99888.81;5134903;27;8821;-59
2022/11/06 00:37:16;;;;;;;;;5.00;4.50;;;;;9.16;74.13;99888.47;5136187;27;8825;-59
2022/11/06 00:39:43;;;;;;;;;6.75;4.00;;;;;9.22;74.34;99887.16;5136377;27;8818;-59
2022/11/06 00:42:11;;;;;;;;;8.25;7.00;;;;;9.26;74.31;99896.63;5136222;27;8821;-59
2022/11/06 00:44:39;;;;;;;;;6.25;5.50;;;;;9.29;74.24;99894.56;5138149;27;8851;-59
2022/11/06 00:47:06;;;;;;;;;3.25;3.00;;;;;9.32;74.30;99904.09;5139732;27;8802;-58
2022/11/06 00:49:34;;;;;;;;;5.50;5.00;;;;;9.35;73.99;99903.88;5140448;27;9500;-59
2022/11/06 00:52:02;;;;;;;;;5.50;5.50;;;;;9.36;74.19;99906.44;5139813;27;8810;-59
2022/11/06 00:54:29;;;;;;;;;3.00;2.00;;;;;9.38;74.32;99901.00;5139622;27;8829;-59
2022/11/06 00:56:57;;;;;;;;;4.00;4.00;;;;;9.40;73.69;99893.75;5139750;27;9567;-59
2022/11/06 00:59:24;;;;;;;;;3.00;2.75;;;;;9.42;73.96;99894.50;5139517;27;8900;-59
2022/11/06 01:01:52;;;;;;;;;6.50;4.00;;;;;9.44;74.07;99904.06;5139752;27;8902;-59
2022/11/06 01:04:21;;;;;;;;;1.00;1.00;;;;;9.44;73.65;99906.72;5139997;27;8836;-59
2022/11/06 01:06:48;;;;;;;;;4.00;4.00;;;;;9.44;73.65;99901.38;5139989;27;8918;-59
2022/11/06 01:09:16;;;;;;;;;8.25;5.50;;;;;9.43;73.68;99901.50;5139999;27;9489;-60
2022/11/06 01:11:43;;;;;;;;;6.00;4.00;;;;;9.41;74.03;99908.75;5139935;27;8890;-59
2022/11/06 01:14:33;;;;;;;;;5.00;3.00;;;;;9.36;73.79;99901.13;5139272;27;9013;-58
2022/11/06 01:17:01;;;;;;;;;0.50;0.50;;;;;9.31;74.57;99903.28;5139134;27;8858;-59
2022/11/06 01:19:28;;;;;;;;;4.00;4.00;;;;;9.26;74.16;99905.41;5139532;27;8829;-59
2022/11/06 01:21:56;;;;;;;;;6.00;4.00;;;;;9.21;74.37;99910.25;5139022;27;8814;-59
2022/11/06 01:24:24;;;;;;;;;3.00;3.00;;;;;9.14;74.44;99914.31;5139672;27;8822;-59
2022/11/06 01:26:54;;;;;;;;;3.75;3.50;;;;;9.12;74.46;99915.38;5138480;27;8841;-59
2022/11/06 01:29:42;;;;;;;;;4.00;4.00;;;;;9.09;74.34;99920.91;5139021;27;8946;-59
2022/11/06 01:32:10;;;;;;;;;4.75;4.75;;;;;9.06;74.73;99908.72;5138853;27;8902;-59
2022/11/06 01:34:38;;;;;;;;;5.50;4.00;;;;;9.04;74.62;99904.47;5138962;27;8805;-59
2022/11/06 01:37:05;;;;;;;;;6.25;6.25;;;;;9.00;74.67;99895.91;5138806;27;9585;-59
2022/11/06 01:39:39;;;;;;;;;1.50;1.00;;;;;8.98;75.02;99894.31;5139120;27;8830;-59
2022/11/06 01:42:07;;;;;;;;;4.00;4.00;;;;;8.97;74.91;99884.66;5139037;27;9512;-59
2022/11/06 01:44:35;;;;;;;;;3.50;3.50;;;;;8.96;74.64;99880.31;5138807;27;8817;-59
2022/11/06 01:47:02;;;;;;;;;4.00;3.25;;;;;8.95;75.00;99876.78;5138888;27;9517;-59
2022/11/06 01:49:32;;;;;;;;;1.00;1.00;;;;;8.94;74.99;99876.88;5138929;27;8822;-59
2022/11/06 01:52:00;;;;;;;;;5.00;4.50;;;;;8.91;74.70;99872.69;5139132;27;8801;-59
2022/11/06 01:54:28;;;;;;;;;5.00;5.00;;;;;8.88;74.77;99870.22;5138540;27;8860;-59
2022/11/06 01:56:55;;;;;;;;;3.50;3.50;;;;;8.85;75.21;99857.19;5137931;27;8901;-59
2022/11/06 01:59:23;;;;;;;;;3.00;3.00;;;;;8.84;74.92;99866.13;5138870;27;8909;-59
2022/11/06 02:01:52;;;;;;;;;3.25;3.25;;;;;8.83;75.10;99861.75;5138957;27;8818;-59
2022/11/06 02:04:20;;;;;;;;;3.00;3.00;;;;;8.80;75.05;99848.72;5138594;27;8814;-59
2022/11/06 02:06:48;;;;;;;;;3.50;3.50;;;;;8.78;74.92;99853.28;5138461;27;8818;-58
2022/11/06 02:09:15;;;;;;;;;2.00;1.50;;;;;8.76;75.30;99851.72;5138643;27;9634;-59
2022/11/06 02:11:43;;;;;;;;;3.75;3.50;;;;;8.73;75.38;99850.13;5138746;27;8825;-59
2022/11/06 02:14:13;;;;;;;;;4.00;4.00;;;;;8.72;75.05;99853.75;5137449;27;9558;-59
2022/11/06 02:16:40;;;;;;;;;5.00;4.00;;;;;8.69;75.02;99846.03;5137404;27;8822;-59
2022/11/06 02:19:08;;;;;;;;;3.00;3.00;;;;;8.67;75.34;99842.59;5138112;27;8849;-59
2022/11/06 02:21:35;;;;;;;;;3.75;3.75;;;;;8.65;75.14;99833.91;5137924;27;8845;-58
2022/11/06 02:24:03;;;;;;;;;4.00;4.00;;;;;8.65;75.39;99828.59;5138331;27;8984;-59
2022/11/06 02:26:31;;;;;;;;;4.00;4.00;;;;;8.64;75.34;99824.25;5136854;27;8813;-59
2022/11/06 02:28:59;;;;;;;;;4.00;3.00;;;;;8.63;75.13;99824.38;5137026;27;8857;-59
2022/11/06 02:31:27;;;;;;;;;2.00;2.00;;;;;8.64;75.61;99823.41;5137006;27;8837;-59
2022/11/06 02:33:54;;;;;;;;;3.25;3.00;;;;;8.64;74.87;99821.59;5137116;27;8813;-59
2022/11/06 02:36:22;;;;;;;;;3.50;3.50;;;;;8.63;75.08;99822.56;5137294;27;8833;-60
2022/11/06 02:38:52;;;;;;;;;4.00;3.00;;;;;8.63;75.27;99829.69;5137507;27;8838;-59
2022/11/06 02:41:19;;;;;;;;;3.00;3.00;;;;;8.63;75.34;99830.53;5137225;27;8842;-59
2022/11/06 02:43:47;;;;;;;;;5.00;5.00;;;;;8.63;75.47;99824.38;5137425;27;8806;-59
2022/11/06 02:46:14;;;;;;;;;0.00;0.00;;;;;8.62;75.28;99817.38;5137540;27;9561;-59
2022/11/06 02:48:42;;;;;;;;;1.50;1.50;;;;;8.62;74.91;99823.53;5138072;27;8838;-59
2022/11/06 02:51:10;;;;;;;;;6.00;5.00;;;;;8.65;75.22;99823.28;5136858;27;8818;-59
2022/11/06 02:53:38;;;;;;;;;1.00;1.00;;;;;8.69;75.33;99824.78;5137411;27;8837;-59
2022/11/06 02:56:06;;;;;;;;;3.00;3.00;;;;;8.72;74.94;99837.81;5137000;27;8829;-59
2022/11/06 02:58:34;;;;;;;;;1.00;1.00;;;;;8.75;74.99;99834.09;5137330;27;8822;-59
2022/11/06 03:01:05;;;;;;;;;3.00;3.00;;;;;8.75;74.75;99828.78;5137413;27;8844;-58
2022/11/06 03:03:34;;;;;;;;;3.50;1.00;;;;;8.74;74.82;99821.78;5137262;27;9604;-59
2022/11/06 03:06:01;;;;;;;;;3.00;3.00;;;;;8.70;74.94;99826.47;5136801;27;8910;-59
2022/11/06 03:08:30;;;;;;;;;5.75;3.00;;;;;8.69;74.91;99830.09;5135245;27;8921;-59
2022/11/06 03:10:57;;;;;;;;;3.50;3.25;;;;;8.67;75.05;99839.13;5135727;27;8952;-59
2022/11/06 03:13:26;;;;;;;;;3.50;3.00;;;;;8.63;75.30;99833.19;5135767;27;8864;-59
2022/11/06 03:15:53;;;;;;;;;2.50;1.00;;;;;8.63;75.25;99825.22;5135352;27;8805;-59
2022/11/06 03:18:21;;;;;;;;;2.50;2.50;;;;;8.62;75.38;99834.16;5136146;27;8910;-59
2022/11/06 03:20:48;;;;;;;;;3.75;3.50;;;;;8.62;75.50;99823.53;5136757;27;8845;-58
2022/11/06 03:23:16;;;;;;;;;3.25;3.25;;;;;8.61;75.00;99818.34;5136959;27;8914;-59
2022/11/06 03:25:44;;;;;;;;;1.00;1.00;;;;;8.60;75.23;99820.13;5137289;27;8834;-59
2022/11/06 03:28:13;;;;;;;;;4.00;3.00;;;;;8.58;75.10;99814.09;5137030;27;8817;-59
2022/11/06 03:30:41;;;;;;;;;3.50;3.50;;;;;8.58;75.14;99808.78;5137053;27;8814;-59
2022/11/06 03:33:09;;;;;;;;;3.75;3.75;;;;;8.57;75.50;99804.44;5136964;27;8926;-59
2022/11/06 03:35:37;;;;;;;;;3.00;3.00;;;;;8.54;75.24;99812.63;5136701;27;8841;-59
2022/11/06 03:38:05;;;;;;;;;2.00;2.00;;;;;8.54;75.36;99804.69;5136507;27;8845;-58
2022/11/06 03:40:32;;;;;;;;;3.00;3.00;;;;;8.55;75.05;99797.53;5136754;27;8806;-59
2022/11/06 03:43:00;;;;;;;;;1.00;1.00;;;;;8.56;75.08;99793.94;5137014;27;8826;-59
2022/11/06 03:45:28;;;;;;;;;1.50;1.00;;;;;8.54;75.22;99790.53;5136181;27;8809;-59
2022/11/06 03:47:55;;;;;;;;;2.50;1.50;;;;;8.55;75.43;99785.13;5136530;27;8817;-59
2022/11/06 03:50:23;;;;;;;;;3.00;3.00;;;;;8.58;75.25;99784.91;5136562;27;8832;-59
2022/11/06 03:52:52;;;;;;;;;2.50;2.50;;;;;8.59;75.83;99775.97;5137041;27;8902;-59
2022/11/06 03:55:20;;;;;;;;;3.50;3.00;;;;;8.61;75.62;99771.41;5136601;27;8891;-59
2022/11/06 03:57:48;;;;;;;;;0.75;0.75;;;;;8.62;75.59;99766.94;5136582;27;8917;-58
2022/11/06 04:03:25;;;;;;;;;6.20;6.20;;;;;8.67;75.13;99784.22;5135676;27;9565;-59
2022/11/06 04:05:53;;;;;;;;;2.00;2.00;;;;;8.69;75.75;99782.31;5136123;27;8810;-58
2022/11/06 04:14:00;;;;;;;;;3.00;3.00;;;;;8.70;75.81;99793.75;5104662;27;8915;-59
2022/11/06 04:16:28;;;;;;;;;1.00;1.00;;;;;8.69;75.94;99792.94;5135919;27;8822;-59
2022/11/06 04:18:56;;;;;;;;;4.00;3.50;;;;;8.69;75.65;99805.34;5137042;27;8829;-59
2022/11/06 04:21:24;;;;;;;;;2.50;2.50;;;;;8.67;75.86;99808.09;5139879;27;8814;-58
2022/11/06 04:26:34;;;;;;;;;2.00;2.00;;;;;8.68;75.79;99811.63;5139641;27;8790;-59
2022/11/06 04:26:39;;;;;;;;;4.50;4.50;;;;;8.65;75.54;99818.00;5139318;27;8800;-59
2022/11/06 04:29:07;;;;;;;;;3.00;3.00;;;;;8.64;75.71;99805.69;5139864;27;8814;-59
2022/11/06 04:31:34;;;;;;;;;3.00;3.00;;;;;8.64;75.73;99816.31;5140066;27;8914;-59
2022/11/06 04:34:02;;;;;;;;;4.50;3.50;;;;;8.62;75.73;99810.25;5139801;27;8825;-58
2022/11/06 04:36:29;;;;;;;;;1.00;1.00;;;;;8.62;75.98;99812.91;5139359;27;8826;-57
2022/11/06 04:38:57;;;;;;;;;0.75;0.75;;;;;8.62;75.89;99798.78;5149029;27;8835;-59
2022/11/06 04:41:25;;;;;;;;;4.00;3.50;;;;;8.62;75.61;99802.31;5166902;27;8819;-60
2022/11/06 04:43:52;;;;;;;;;6.00;5.50;;;;;8.63;75.84;99804.00;5159001;27;8818;-59
2022/11/06 04:46:20;;;;;;;;;3.00;3.00;;;;;8.64;75.92;99800.38;5139818;27;8902;-59
2022/11/06 04:48:48;;;;;;;;;2.00;2.00;;;;;8.63;75.92;99798.69;5139748;27;8810;-59
2022/11/06 04:51:15;;;;;;;;;3.00;3.00;;;;;8.62;75.94;99791.69;5140459;27;8829;-59
2022/11/06 04:53:43;;;;;;;;;1.00;1.00;;;;;8.63;75.64;99788.06;5139837;27;8822;-59
2022/11/06 04:56:11;;;;;;;;;4.00;4.00;;;;;8.63;75.64;99793.38;5138666;27;8886;-59
2022/11/06 04:58:38;;;;;;;;;3.00;1.50;;;;;8.62;75.54;99774.91;5138746;27;8841;-59
2022/11/06 05:01:06;;;;;;;;;3.25;3.25;;;;;8.62;75.62;99785.53;5139141;27;8925;-59
2022/11/06 05:03:34;;;;;;;;;3.50;3.50;;;;;8.62;75.70;99775.75;5139074;27;8918;-59
2022/11/06 05:06:02;;;;;;;;;3.00;3.00;;;;;8.63;75.70;99766.84;5138651;27;8849;-57
2022/11/06 05:08:29;;;;;;;;;2.00;2.00;;;;;8.64;75.78;99775.63;5139013;27;8865;-59
2022/11/06 05:10:57;;;;;;;;;3.00;3.00;;;;;8.63;75.84;99774.78;5139371;27;9503;-59
2022/11/06 05:13:25;;;;;;;;;3.00;3.00;;;;;8.62;75.96;99767.81;5139359;27;8814;-59
2022/11/06 05:15:52;;;;;;;;;3.00;3.00;;;;;8.60;75.73;99777.66;5139940;27;9504;-58
2022/11/06 05:18:21;;;;;;;;;1.00;1.00;;;;;8.59;75.79;99773.31;5139769;27;8922;-56
2022/11/06 05:22:56;;;;;;;;;5.00;3.50;;;;;8.60;75.64;99759.09;5139559;27;8825;-58
2022/11/06 05:23:37;;;;;;;;;3.00;3.00;;;;;8.61;75.51;99749.31;5139729;27;8813;-59
2022/11/06 05:26:05;;;;;;;;;2.00;1.00;;;;;8.61;75.71;99744.88;5139768;27;8825;-59
2022/11/06 05:28:34;;;;;;;;;2.75;2.00;;;;;8.62;75.95;99737.75;5139627;27;8830;-58
2022/11/06 05:31:01;;;;;;;;;4.00;4.00;;;;;8.61;76.11;99726.31;5138665;27;8813;-57
2022/11/06 05:33:29;;;;;;;;;1.00;1.00;;;;;8.61;75.69;99723.66;5139468;27;8801;-58
2022/11/06 05:35:57;;;;;;;;;2.50;1.00;;;;;8.63;76.12;99715.56;5139374;27;8821;-59
2022/11/06 05:38:25;;;;;;;;;1.00;1.00;;;;;8.67;75.86;99725.81;5143855;27;8836;-58
2022/11/06 05:40:53;;;;;;;;;1.00;1.00;;;;;8.68;75.68;99718.72;5160184;27;8868;-57
2022/11/06 05:43:21;;;;;;;;;1.00;0.25;;;;;8.70;75.89;99703.50;5158157;27;8831;-59
2022/11/06 05:45:48;;;;;;;;;3.00;1.50;;;;;8.71;75.66;99714.03;5139184;27;8886;-58
2022/11/06 05:48:16;;;;;;;;;1.00;1.00;;;;;8.70;75.65;99708.81;5139035;27;8817;-59
2022/11/06 05:50:43;;;;;;;;;3.00;1.50;;;;;8.69;75.40;99708.00;5139333;27;8817;-57
2022/11/06 05:53:11;;;;;;;;;1.00;1.00;;;;;8.67;75.92;99709.88;5139464;27;8826;-59
2022/11/06 05:55:39;;;;;;;;;2.50;1.00;;;;;8.65;75.71;99703.88;5139153;27;8797;-58
2022/11/06 05:58:06;;;;;;;;;1.00;1.00;;;;;8.64;75.93;99702.16;5138744;27;8806;-58
2022/11/06 06:00:34;;;;;;;;;0.50;0.25;;;;;8.62;76.08;99698.78;5138404;27;8825;-58
2022/11/06 06:03:01;;;;;;;;;1.75;1.75;;;;;8.59;75.74;99699.00;5139059;27;8821;-59
2022/11/06 06:05:29;;;;;;;;;1.00;1.00;;;;;8.57;76.19;99698.28;5138969;27;8846;-59
2022/11/06 06:07:57;;;;;;;;;3.00;3.00;;;;;8.55;76.09;99702.88;5139351;27;8930;-59
2022/11/06 06:10:25;;;;;;;;;1.00;1.00;;;;;8.54;75.94;99702.97;5159720;27;9482;-59
2022/11/06 06:12:52;;;;;;;;;2.50;2.50;;;;;8.54;76.05;99698.53;5159423;27;8820;-58
2022/11/06 06:15:20;;;;;;;;;3.25;3.25;;;;;8.55;76.12;99697.56;5139952;27;8921;-59
2022/11/06 06:17:47;;;;;;;;;1.00;1.00;;;;;8.57;76.12;99689.47;5138345;27;8897;-58
2022/11/06 06:20:15;;;;;;;;;1.00;1.00;;;;;8.57;75.89;99682.38;5138304;27;8867;-59
2022/11/06 06:22:43;;;;;;;;;3.25;3.25;;;;;8.58;76.29;99691.19;5138251;27;9621;-58
2022/11/06 06:25:11;;;;;;;;;0.25;0.25;;;;;8.58;76.52;99681.41;5138062;27;9512;-59
2022/11/06 06:27:49;;;;;;;;;1.50;1.50;;;;;8.59;76.09;99685.75;5137780;27;8813;-58
2022/11/06 06:30:17;;;;;;;;;0.75;0.75;;;;;8.58;76.10;99678.75;5137879;27;8814;-59
2022/11/06 06:32:44;;;;;;;;;1.00;1.00;;;;;8.59;75.70;99683.09;5137869;27;8834;-58
2022/11/06 06:35:12;;;;;;;;;1.00;0.75;;;;;8.62;75.99;99682.88;5138007;27;8902;-59
2022/11/06 06:37:40;;;;;;;;;0.75;0.75;;;;;8.63;76.00;99678.38;5137624;27;8829;-58
2022/11/06 06:40:09;;;;;;;;;2.00;1.00;;;;;8.62;76.11;99680.22;5137700;27;8806;-58
2022/11/06 06:42:36;;;;;;;;;3.00;1.00;;;;;8.64;75.55;99683.59;5137542;27;8818;-58
2022/11/06 06:45:04;;;;;;;;;1.00;1.00;;;;;8.64;76.02;99691.56;5137305;27;8873;-58
2022/11/06 06:47:32;;;;;;;;;1.00;1.00;;;;;8.66;76.01;99686.16;5137754;27;8897;-57
2022/11/06 06:50:00;;;;;;;;;1.00;1.00;;;;;8.66;75.75;99681.66;5137431;27;8817;-59
2022/11/06 06:52:31;;;;;;;;;2.50;0.75;;;;;8.67;75.45;99691.31;5137288;27;8829;-59
2022/11/06 06:54:58;;;;;;;;;2.00;1.00;;;;;8.68;75.63;99690.34;5136714;27;8841;-59
2022/11/06 06:57:26;;;;;;;;;2.00;2.00;;;;;8.69;75.87;99676.13;5137173;27;8817;-58
2022/11/06 06:59:53;;;;;;;;;1.50;1.50;;;;;8.70;75.69;99683.13;5137150;27;8909;-58
2022/11/06 07:02:21;;;;;;;;;0.75;0.00;;;;;8.71;75.79;99682.16;5136497;27;8941;-58
2022/11/06 07:04:49;;;;;;;;;0.25;0.25;;;;;8.71;75.64;99673.34;5136994;27;8818;-58
2022/11/06 07:07:17;;;;;;;;;0.75;0.75;;;;;8.72;75.52;99675.88;5137602;27;9609;-58
2022/11/06 07:09:44;;;;;;;;;0.50;0.50;;;;;8.76;75.81;99676.50;5153290;27;9576;-59
2022/11/06 07:12:12;;;;;;;;;1.00;1.00;;;;;8.77;75.64;99676.41;5158352;27;8823;-58
2022/11/06 07:14:40;;;;;;;;;0.50;0.50;;;;;8.79;75.30;99687.72;5144557;27;8797;-59
2022/11/06 07:17:09;;;;;;;;;3.50;3.25;;;;;8.83;75.88;99694.47;5136881;27;8886;-59
2022/11/06 07:19:36;;;;;;;;;1.00;0.00;;;;;8.85;75.40;99689.94;5137021;27;8840;-59
2022/11/06 07:22:04;;;;;;;;;1.00;1.00;;;;;8.87;75.60;99687.13;5137229;27;8810;-57
2022/11/06 07:24:31;;;;;;;;;1.00;1.00;;;;;8.90;75.14;99693.06;5136793;27;9224;-58
2022/11/06 07:26:59;;;;;;;;;3.00;3.00;;;;;8.95;75.36;99693.56;5136669;27;8906;-59
2022/11/06 07:29:27;;;;;;;;;0.75;0.75;;;;;8.97;75.09;99694.28;5136569;27;8833;-59
2022/11/06 07:31:55;;;;;;;;;1.00;1.00;;;;;9.00;75.18;99691.41;5136381;27;8825;-59
2022/11/06 07:34:23;;;;;;;;;0.25;0.25;;;;;9.04;75.51;99707.94;5136056;27;8814;-58
2022/11/06 07:36:50;;;;;;;;;0.75;0.75;;;;;9.07;75.10;99692.63;5136395;27;8821;-59
2022/11/06 07:39:18;;;;;;;;;0.00;0.00;;;;;9.11;74.75;99693.22;5136551;27;8856;-59
2022/11/06 07:41:48;;;;;;;;;3.00;0.75;;;;;9.12;74.72;99701.06;5136769;27;8826;-59
2022/11/06 07:44:15;;;;;;;;;1.00;1.00;;;;;9.15;75.03;99700.84;5136627;27;8842;-59
2022/11/06 07:46:43;;;;;;;;;0.75;0.75;;;;;9.14;74.91;99704.47;5136409;27;8833;-59
2022/11/06 07:49:11;;;;;;;;;1.50;1.00;;;;;9.17;75.02;99701.56;5136576;27;8822;-59
2022/11/06 07:51:39;;;;;;;;;1.50;1.00;;;;;9.22;74.93;99702.06;5136562;27;8817;-58
2022/11/06 07:54:06;;;;;;;;;1.50;1.00;;;;;9.27;74.51;99699.03;5135954;27;8833;-59
2022/11/06 07:56:34;;;;;;;;;1.00;1.00;;;;;9.33;74.75;99701.22;5136719;27;8818;-59
2022/11/06 07:59:02;;;;;;;;;0.50;0.50;;;;;9.44;74.49;99710.03;5136627;27;8841;-59
2022/11/06 08:01:30;;;;;;;;;0.50;0.50;;;;;9.53;74.15;99711.97;5136164;27;9648;-59
2022/11/06 08:03:57;;;;;;;;;1.00;1.00;;;;;9.61;73.64;99704.22;5136325;27;8806;-59
2022/11/06 08:06:25;;;;;;;;;1.00;1.00;;;;;9.68;74.34;99692.16;5136943;27;8842;-59
2022/11/06 08:08:53;;;;;;;;;1.50;1.50;;;;;9.74;73.79;99689.00;5145070;27;8851;-59
2022/11/06 08:11:26;;;;;;;;;2.00;1.00;;;;;9.79;74.08;99696.59;5157555;27;8840;-59
2022/11/06 08:13:54;;;;;;;;;1.00;1.00;;;;;9.81;73.65;99676.88;5157523;27;8824;-56
2022/11/06 08:16:22;;;;;;;;;4.00;3.00;;;;;9.88;73.68;99675.41;5157400;27;8816;-59
2022/11/06 08:18:50;;;;;;;;;3.50;2.50;;;;;9.94;73.46;99672.25;5156747;27;8838;-59
2022/11/06 08:21:18;;;;;;;;;1.00;1.00;;;;;10.01;73.74;99669.97;5156801;27;8864;-59
2022/11/06 08:23:45;;;;;;;;;0.75;0.75;;;;;10.08;73.27;99666.69;5141613;27;8840;-59
2022/11/06 08:26:13;;;;;;;;;2.50;2.50;;;;;10.13;73.61;99663.66;5136270;27;9569;-59
2022/11/06 08:28:41;;;;;;;;;1.00;1.00;;;;;10.20;73.12;99654.19;5135675;27;8894;-59
2022/11/06 08:31:11;;;;;;;;;0.00;0.00;;;;;10.24;73.07;99660.97;5135864;27;8806;-59
2022/11/06 08:33:39;;;;;;;;;1.50;0.75;;;;;10.27;72.92;99656.25;5135919;27;8913;-58
2022/11/06 08:36:06;;;;;;;;;1.00;1.00;;;;;10.31;72.86;99654.16;5136065;27;8821;-59
2022/11/06 08:38:35;;;;;;;;;1.00;1.00;;;;;10.36;72.69;99643.97;5135817;27;8810;-57
2022/11/06 08:41:03;;;;;;;;;0.00;0.00;;;;;10.40;73.06;99648.06;5136107;27;8917;-58
2022/11/06 08:43:31;;;;;;;;;0.50;0.50;;;;;10.43;72.63;99650.47;5135115;27;8844;-59
2022/11/06 08:45:59;;;;;;;;;0.50;0.50;;;;;10.45;72.54;99636.06;5136106;27;8810;-60
2022/11/06 08:48:27;;;;;;;;;3.00;3.00;;;;;10.48;72.76;99642.94;5136341;27;8822;-58
2022/11/06 08:50:54;;;;;;;;;1.00;1.00;;;;;10.50;72.28;99647.19;5136037;27;8830;-59
2022/11/06 08:53:22;;;;;;;;;1.00;1.00;;;;;10.52;72.75;99641.69;5135814;27;8834;-58
2022/11/06 08:55:51;;;;;;;;;2.50;1.00;;;;;10.55;72.49;99642.28;5135285;27;8813;-59
2022/11/06 08:58:19;;;;;;;;;1.00;1.00;;;;;10.58;72.52;99644.72;5134250;27;8817;-58
2022/11/06 09:00:47;;;;;;;;;0.00;0.00;;;;;10.62;72.00;99639.97;5134287;27;8845;-58
2022/11/06 09:03:16;;;;;;;;;1.00;1.00;;;;;10.63;72.03;99626.50;5134996;27;8841;-59
2022/11/06 09:05:44;;;;;;;;;1.00;1.00;;;;;10.66;72.56;99618.28;5135274;27;8842;-58
2022/11/06 09:08:12;;;;;;;;;1.00;1.00;;;;;10.68;72.25;99618.97;5141522;27;8925;-59
2022/11/06 09:10:40;;;;;;;;;0.00;0.00;;;;;10.72;71.86;99619.56;5159778;27;8832;-59
2022/11/06 09:13:08;;;;;;;;;1.00;1.00;;;;;10.75;72.21;99614.81;5159934;27;8841;-57
2022/11/06 09:15:36;;;;;;;;;1.50;0.25;;;;;10.80;72.20;99599.31;5160004;27;8958;-59
2022/11/06 09:18:04;;;;;;;;;3.00;3.00;;;;;10.85;71.87;99602.41;5160051;27;8803;-59
2022/11/06 09:20:32;;;;;;;;;1.00;0.00;;;;;10.94;71.78;99600.78;5159206;27;8834;-59
2022/11/06 09:22:59;;;;;;;;;1.50;1.50;;;;;11.06;71.45;99594.38;5159477;27;8841;-57
2022/11/06 09:25:28;;;;;;;;;0.00;0.00;;;;;11.19;71.21;99587.84;5158745;27;8970;-58
2022/11/06 09:27:55;;;;;;;;;1.00;1.00;;;;;11.32;71.35;99590.28;5155474;27;8813;-59
2022/11/06 09:30:26;;;;;;;;;0.75;0.75;;;;;11.43;70.52;99588.34;5139025;27;9006;-59
2022/11/06 09:32:56;;;;;;;;;0.00;0.00;;;;;11.56;70.56;99591.63;5139029;27;8830;-58
2022/11/06 09:35:24;;;;;;;;;0.50;0.00;;;;;11.68;70.41;99589.72;5138506;27;8892;-58
2022/11/06 09:37:52;;;;;;;;;2.00;1.00;;;;;11.77;69.66;99588.88;5138610;27;8826;-60
2022/11/06 09:40:20;;;;;;;;;2.00;1.00;;;;;11.88;69.91;99588.72;5120006;27;8855;-59
2022/11/06 09:42:48;;;;;;;;;0.75;0.75;;;;;12.00;69.58;99583.97;5138136;27;8806;-59
2022/11/06 09:45:21;;;;;;;;;0.00;0.00;;;;;12.25;68.64;99588.75;5138276;27;8956;-60
2022/11/06 09:47:49;;;;;;;;;4.00;1.00;;;;;12.73;67.84;99578.84;5138320;27;8967;-60
2022/11/06 09:50:17;;;;;;;;;1.00;1.00;;;;;12.99;66.87;99571.06;5137714;27;8829;-59
2022/11/06 09:52:45;;;;;;;;;1.00;0.50;;;;;13.21;66.75;99576.88;5137243;27;9520;-59
2022/11/06 09:55:13;;;;;;;;;1.00;0.50;;;;;13.36;66.22;99571.91;5137014;27;9578;-59
2022/11/06 09:57:42;;;;;;;;;1.50;0.50;;;;;13.30;66.25;99565.28;5137252;27;8826;-59
2022/11/06 10:00:10;;;;;;;;;0.00;0.00;;;;;13.36;65.86;99558.53;5136913;27;9039;-59
2022/11/06 10:02:38;;;;;;;;;1.75;0.50;;;;;13.40;65.56;99554.53;5137119;27;8846;-59
2022/11/06 10:05:05;;;;;;;;;2.50;1.00;;;;;13.37;65.73;99549.50;5137443;27;8848;-60
2022/11/06 10:07:34;;;;;;;;;1.50;1.00;;;;;13.29;65.59;99536.03;5137131;27;8833;-59
2022/11/06 10:10:01;;;;;;;;;1.00;1.00;;;;;13.19;66.14;99536.09;5155671;27;8812;-58
2022/11/06 10:12:29;;;;;;;;;1.00;1.00;;;;;13.24;65.52;99543.66;5158425;27;8843;-60
2022/11/06 10:14:57;;;;;;;;;1.00;1.00;;;;;13.34;65.78;99545.28;5158013;27;8970;-59
2022/11/06 10:17:25;;;;;;;;;1.00;1.00;;;;;13.49;65.15;99527.75;5155825;27;8841;-59
2022/11/06 10:19:53;;;;;;;;;1.00;1.00;;;;;13.55;65.49;99537.00;5136915;27;8922;-57
2022/11/06 10:22:21;;;;;;;;;1.00;1.00;;;;;13.49;65.38;99532.25;5137230;27;8914;-59
2022/11/06 10:24:49;;;;;;;;;0.50;0.50;;;;;13.42;65.34;99532.00;5137850;27;8840;-59
2022/11/06 10:27:17;;;;;;;;;2.50;0.75;;;;;13.36;65.26;99526.44;5137778;27;8833;-60
2022/11/06 10:29:45;;;;;;;;;2.50;2.50;;;;;13.33;65.43;99526.72;5137975;27;9476;-59
2022/11/06 10:32:13;;;;;;;;;2.00;1.00;;;;;13.30;65.34;99521.69;5137877;27;9504;-59
2022/11/06 10:34:41;;;;;;;;;1.00;1.00;;;;;13.31;65.30;99520.69;5137579;27;8826;-60
2022/11/06 10:37:09;;;;;;;;;2.50;1.00;;;;;13.36;65.22;99524.59;5136878;27;8825;-60
2022/11/06 10:39:36;;;;;;;;;1.00;1.00;;;;;13.38;65.02;99519.09;5132327;27;8821;-59
2022/11/06 10:42:04;;;;;;;;;1.00;1.00;;;;;13.39;65.40;99507.41;5135869;27;8821;-58
2022/11/06 10:44:33;;;;;;;;;1.00;1.00;;;;;13.43;64.94;99514.16;5135687;27;9749;-59
2022/11/06 10:47:01;;;;;;;;;1.00;1.00;;;;;13.46;65.02;99500.47;5135889;27;8830;-59
2022/11/06 10:49:29;;;;;;;;;0.75;0.75;;;;;13.52;64.37;99489.16;5136146;27;8925;-59
2022/11/06 10:51:57;;;;;;;;;1.00;1.00;;;;;13.89;63.39;99487.19;5136241;27;9562;-60
2022/11/06 10:54:25;;;;;;;;;3.00;3.00;;;;;14.19;62.92;99484.13;5136851;27;8813;-59
2022/11/06 10:56:53;;;;;;;;;1.50;1.50;;;;;14.30;62.46;99468.63;5135852;27;8814;-60
2022/11/06 10:59:21;;;;;;;;;0.00;0.00;;;;;14.27;62.09;99470.78;5115763;28;8865;-60
2022/11/06 11:01:49;;;;;;;;;0.75;0.75;;;;;14.30;62.47;99471.31;5115170;28;8827;-58
2022/11/06 11:04:17;;;;;;;;;2.00;1.00;;;;;14.24;62.17;99471.06;5115657;28;9546;-58
2022/11/06 11:06:45;;;;;;;;;1.00;1.00;;;;;14.11;62.54;99476.00;5115084;28;8873;-58
2022/11/06 11:09:13;;;;;;;;;1.00;1.00;;;;;14.03;62.07;99479.44;5126896;27;8887;-58
2022/11/06 11:11:43;;;;;;;;;0.00;0.00;;;;;14.00;62.34;99462.84;5135630;27;8826;-58
2022/11/06 11:14:11;;;;;;;;;1.00;1.00;;;;;13.99;62.42;99471.84;5135242;27;8913;-58
2022/11/06 11:16:39;;;;;;;;;0.50;0.50;;;;;14.00;62.43;99463.69;5134495;27;8834;-56
2022/11/06 11:19:07;;;;;;;;;1.00;1.00;;;;;14.00;62.30;99460.16;5134263;27;8830;-58
2022/11/06 11:21:35;;;;;;;;;2.00;2.00;;;;;13.97;62.69;99463.97;5134444;27;8952;-59
2022/11/06 11:24:04;;;;;;;;;1.50;0.00;;;;;13.97;62.63;99455.94;5134112;27;8826;-59
2022/11/06 11:26:32;;;;;;;;;1.00;1.00;;;;;14.01;62.04;99445.75;5134807;27;8825;-57
2022/11/06 11:29:00;;;;;;;;;1.00;1.00;;;;;14.01;62.30;99438.59;5133829;27;8818;-59
2022/11/06 11:31:28;;;;;;;;;1.00;1.00;;;;;13.99;61.86;99431.69;5134803;27;8821;-58
2022/11/06 11:33:56;;;;;;;;;3.25;3.00;;;;;13.92;62.77;99427.97;5135124;27;9510;-59
2022/11/06 11:36:27;;;;;;;;;0.50;0.50;;;;;13.82;62.80;99420.03;5134910;27;8845;-59
2022/11/06 11:38:55;;;;;;;;;1.00;1.00;;;;;13.74;62.56;99411.94;5143705;27;8855;-59
2022/11/06 11:41:23;;;;;;;;;1.00;1.00;;;;;13.72;62.48;99403.22;5155615;27;8854;-58
2022/11/06 11:43:51;;;;;;;;;0.00;0.00;;;;;13.80;62.58;99402.44;5156028;27;8823;-56
2022/11/06 11:46:19;;;;;;;;;1.67;1.00;;;;;13.86;62.75;99396.47;5156815;27;8820;-57
2022/11/06 11:48:47;;;;;;;;;1.00;1.00;;;;;13.89;62.97;99396.16;5138345;27;8898;-60
2022/11/06 11:51:15;;;;;;;;;1.00;1.00;;;;;13.91;62.34;99383.47;5135852;27;8836;-59
2022/11/06 11:53:43;;;;;;;;;0.75;0.00;;;;;13.93;62.83;99376.09;5135443;27;8872;-58
2022/11/06 11:56:11;;;;;;;;;1.00;0.00;;;;;13.94;61.83;99388.50;5135795;27;8818;-57
2022/11/06 11:58:39;;;;;;;;;1.00;1.00;;;;;13.94;62.13;99384.00;5135685;27;8841;-59
2022/11/06 12:01:09;;;;;;;;;1.00;1.00;;;;;13.98;61.93;99385.34;5135429;27;8879;-57
2022/11/06 12:03:37;;;;;;;;;3.50;0.50;;;;;13.98;61.72;99369.28;5135390;27;8829;-59